Time;durP1;ratioP1;P1;durP2;ratioP2;P2;SDS_P1;SDS_P2;PMS_P1;PMS_P2;Temp;Humidity;BMP_temperature;BMP_pressure;BME280_temperature;BME280_humidity;BME280_pressure;Samples;Min_cycle;Max_cycle;Signal;HPM_P1;HPM_P2
2022/10/08 00:01:28;;;;;;;10.40;3.20;;;;;;;13.69;70.12;101547.28;6215655;23;20009;-62
2022/10/08 00:03:55;;;;;;;10.77;3.22;;;;;;;13.64;70.27;101539.28;6215642;23;20001;-62
2022/10/08 00:06:28;;;;;;;13.90;3.10;;;;;;;13.66;69.98;101540.19;6215287;23;20032;-62
2022/10/08 00:08:57;;;;;;;16.63;3.30;;;;;;;13.66;69.95;101537.53;6215989;23;20009;-62
2022/10/08 00:11:29;;;;;;;12.68;3.13;;;;;;;13.64;70.01;101543.69;6215926;23;20005;-62
2022/10/08 00:13:54;;;;;;;8.38;2.75;;;;;;;13.58;70.38;101536.56;6215657;23;20000;-62
2022/10/08 00:16:35;;;;;;;10.55;3.22;;;;;;;13.58;70.30;101548.97;6215611;23;20079;-62
2022/10/08 00:19:04;;;;;;;9.82;3.03;;;;;;;13.55;70.60;101540.97;6217293;23;20449;-62
2022/10/08 00:21:34;;;;;;;12.60;3.45;;;;;;;13.52;70.60;101542.69;6217748;23;20004;-62
2022/10/08 00:24:01;;;;;;;11.55;3.13;;;;;;;13.54;70.86;101540.06;6218004;23;20012;-62
2022/10/08 00:26:28;;;;;;;12.50;2.97;;;;;;;13.53;71.00;101543.59;6217819;23;20016;-62
2022/10/08 00:28:56;;;;;;;12.27;3.10;;;;;;;13.55;71.19;101533.00;6217468;23;20317;-62
2022/10/08 00:31:24;;;;;;;15.45;3.80;;;;;;;13.51;71.31;101540.03;6217838;23;20005;-62
2022/10/08 00:33:53;;;;;;;12.63;3.35;;;;;;;13.51;71.69;101538.28;6217526;23;20059;-62
2022/10/08 00:36:18;;;;;;;13.95;3.30;;;;;;;13.52;72.03;101541.81;6217482;23;20055;-62
2022/10/08 00:38:44;;;;;;;10.68;3.00;;;;;;;13.50;72.03;101546.22;6217475;23;19997;-62
2022/10/08 00:41:21;;;;;;;9.57;3.15;;;;;;;13.55;71.86;101539.19;6217333;23;20005;-62
2022/10/08 00:43:49;;;;;;;14.18;3.10;;;;;;;13.56;72.15;101535.66;6217464;23;20054;-62
2022/10/08 00:46:35;;;;;;;9.27;2.78;;;;;;;13.60;72.13;101539.22;6217264;23;20036;-62
2022/10/08 00:49:10;;;;;;;12.13;3.40;;;;;;;13.64;71.84;101539.28;6217419;23;20009;-62
2022/10/08 00:51:39;;;;;;;10.85;3.25;;;;;;;13.62;72.45;101543.69;6217230;23;20008;-63
2022/10/08 00:54:05;;;;;;;14.73;3.08;;;;;;;13.65;72.19;101538.38;6217316;23;20335;-61
2022/10/08 00:56:35;;;;;;;14.93;2.92;;;;;;;13.69;72.10;101549.94;6217359;23;20009;-62
2022/10/08 00:59:01;;;;;;;9.70;3.00;;;;;;;13.68;72.71;101551.72;6218013;23;20079;-62
2022/10/08 01:01:28;;;;;;;11.38;3.45;;;;;;;13.71;71.99;101554.41;6217229;23;20028;-62
2022/10/08 01:03:54;;;;;;;14.98;3.35;;;;;;;13.73;72.18;101549.09;6217241;23;20009;-62
2022/10/08 01:06:33;;;;;;;12.32;2.75;;;;;;;13.75;72.38;101552.66;6217104;23;20058;-62
2022/10/08 01:09:20;;;;;;;15.75;3.20;;;;;;;13.76;72.33;101560.63;6217536;23;20086;-62
2022/10/08 01:11:54;;;;;;;12.25;3.28;;;;;;;13.82;72.16;101550.94;6217254;23;20005;-62
2022/10/08 01:14:46;;;;;;;13.52;3.28;;;;;;;13.84;71.94;101562.50;6217417;23;20012;-62
2022/10/08 01:17:29;;;;;;;14.35;3.15;;;;;;;13.88;72.00;101566.94;6216862;23;20070;-63
2022/10/08 01:20:28;;;;;;;16.45;3.22;;;;;;;13.84;72.81;101573.13;6217036;23;20016;-62
2022/10/08 01:23:28;;;;;;;9.18;2.70;;;;;;;13.87;74.08;101587.28;6217055;23;20005;-63
2022/10/08 01:25:53;;;;;;;11.45;3.40;;;;;;;13.81;76.30;101581.94;6217051;23;20004;-63
2022/10/08 01:28:28;;;;;;;8.95;3.08;;;;;;;13.71;77.34;101580.06;6217136;23;20427;-62
2022/10/08 01:31:23;;;;;;;12.40;3.53;;;;;;;13.69;76.61;101584.47;6217383;23;20015;-63
2022/10/08 01:34:00;;;;;;;8.20;3.35;;;;;;;13.61;77.35;101570.22;6205762;23;20343;-62
2022/10/08 01:36:34;;;;;;;12.88;3.38;;;;;;;13.51;78.79;101561.28;6216966;23;20004;-63
2022/10/08 01:39:04;;;;;;;11.77;4.00;;;;;;;13.49;79.26;101566.59;6216949;23;20046;-62
2022/10/08 01:41:32;;;;;;;12.95;3.40;;;;;;;13.49;79.38;101569.25;6217051;23;20370;-62
2022/10/08 01:44:19;;;;;;;11.25;3.42;;;;;;;13.48;78.84;101570.09;6217120;23;20071;-63
2022/10/08 01:46:47;;;;;;;12.82;3.47;;;;;;;13.42;79.86;101572.69;6216800;23;20000;-63
2022/10/08 01:49:17;;;;;;;9.02;3.30;;;;;;;13.43;79.46;101573.59;6216764;23;20390;-63
2022/10/08 01:51:52;;;;;;;8.20;3.17;;;;;;;13.39;80.10;101569.09;6215242;23;20071;-62
2022/10/08 01:54:19;;;;;;;8.90;3.17;;;;;;;13.36;80.15;101575.28;6216787;23;20008;-63
2022/10/08 01:56:46;;;;;;;12.80;3.55;;;;;;;13.30;80.47;101577.88;6216825;23;20016;-62
2022/10/08 01:59:19;;;;;;;7.40;3.13;;;;;;;13.30;80.47;101577.88;6216715;23;20418;-63
2022/10/08 02:02:12;;;;;;;10.32;3.50;;;;;;;13.32;80.54;101584.09;6216737;23;20446;-63
2022/10/08 02:04:37;;;;;;;;;;;;;;;13.38;77.88;101583.25;6217271;23;20009;-62
2022/10/08 02:07:10;;;;;;;12.73;3.35;;;;;;;13.29;79.88;101586.72;6216289;23;19935;-63
2022/10/08 02:09:42;;;;;;;9.45;2.97;;;;;;;13.22;80.77;101595.44;6216931;23;20009;-63
2022/10/08 02:12:08;;;;;;;11.15;3.17;;;;;;;13.21;80.72;101594.53;6216731;23;20001;-63
2022/10/08 02:14:36;;;;;;;11.85;3.20;;;;;;;13.18;80.84;101594.50;6216689;23;20058;-63
2022/10/08 02:17:02;;;;;;;11.52;3.05;;;;;;;13.14;81.00;101591.78;6216315;23;20075;-64
2022/10/08 02:19:39;;;;;;;7.85;2.83;;;;;;;13.16;80.56;101593.59;6216602;23;20027;-64
2022/10/08 02:22:06;;;;;;;8.60;3.00;;;;;;;13.02;81.20;101585.47;6216853;23;20019;-63
2022/10/08 02:24:42;;;;;;;8.43;2.80;;;;;;;13.02;81.19;101590.78;6216427;23;20004;-63
2022/10/08 02:27:10;;;;;;;8.98;3.00;;;;;;;13.01;81.58;101585.44;6216742;23;20011;-64
2022/10/08 02:29:56;;;;;;;7.25;2.58;;;;;;;12.92;81.83;101583.56;6216475;23;20036;-63
2022/10/08 02:32:30;;;;;;;9.63;3.00;;;;;;;12.86;82.23;101588.78;6216495;23;20419;-63
2022/10/08 02:35:21;;;;;;;12.15;2.75;;;;;;;12.82;82.23;101592.28;6216423;23;20015;-64
2022/10/08 02:38:01;;;;;;;6.03;2.40;;;;;;;12.86;82.10;101602.06;6200952;23;20016;-64
2022/10/08 02:40:29;;;;;;;6.43;2.50;;;;;;;12.83;81.96;101583.44;6215874;23;20514;-64
2022/10/08 02:43:01;;;;;;;11.43;2.70;;;;;;;12.75;82.80;101587.75;6216344;23;20005;-64
2022/10/08 02:45:32;;;;;;;8.02;2.40;;;;;;;12.66;83.27;101585.88;6216072;23;20300;-64
2022/10/08 02:48:07;;;;;;;9.48;2.83;;;;;;;12.65;83.41;101594.69;6216224;23;20506;-64
2022/10/08 02:50:35;;;;;;;9.82;2.67;;;;;;;12.63;83.20;101590.22;6216584;23;20008;-63
2022/10/08 02:53:01;;;;;;;8.13;2.60;;;;;;;12.64;83.73;101586.72;6216172;23;20386;-64
2022/10/08 02:55:46;;;;;;;11.95;2.78;;;;;;;12.65;83.65;101588.50;6216054;23;20009;-64
2022/10/08 02:58:12;;;;;;;10.05;2.60;;;;;;;12.67;83.53;101592.06;6216276;23;20088;-64
2022/10/08 03:00:48;;;;;;;11.00;2.80;;;;;;;12.58;83.63;101589.28;6216173;23;20032;-64
2022/10/08 03:03:17;;;;;;;7.78;2.60;;;;;;;12.50;84.04;101587.44;6216150;23;20331;-64
2022/10/08 03:05:44;;;;;;;6.40;2.58;;;;;;;12.46;84.07;101585.59;6215995;23;20005;-64
2022/10/08 03:08:13;;;;;;;7.90;2.70;;;;;;;12.50;83.35;101583.84;6216325;23;20379;-63
2022/10/08 03:10:40;;;;;;;6.95;2.40;;;;;;;12.53;83.47;101592.75;6216121;23;20009;-63
2022/10/08 03:13:07;;;;;;;7.65;2.80;;;;;;;12.52;83.50;101590.97;6189471;23;20015;-63
2022/10/08 03:15:35;;;;;;;9.77;2.75;;;;;;;12.51;83.49;101589.19;6216031;23;20419;-64
2022/10/08 03:18:05;;;;;;;10.13;2.40;;;;;;;12.50;83.85;101597.09;6215664;23;20067;-62
2022/10/08 03:20:31;;;;;;;9.52;2.38;;;;;;;12.48;84.15;101598.84;6215895;23;20402;-63
2022/10/08 03:23:00;;;;;;;5.53;2.25;;;;;;;12.50;84.03;101603.31;6215857;23;20025;-62
2022/10/08 03:25:26;;;;;;;7.30;2.22;;;;;;;12.47;83.68;101597.97;6216081;23;20014;-62
2022/10/08 03:27:51;;;;;;;8.88;2.60;;;;;;;12.50;84.06;101602.41;6189238;23;20012;-63
2022/10/08 03:30:16;;;;;;;6.25;2.20;;;;;;;12.51;83.75;101597.16;6215929;23;20083;-63
2022/10/08 03:32:42;;;;;;;9.45;2.53;;;;;;;12.52;83.78;101612.19;6215874;23;20004;-63
2022/10/08 03:35:07;;;;;;;7.25;2.50;;;;;;;12.49;84.06;101600.63;6215898;23;20008;-63
2022/10/08 03:37:33;;;;;;;11.38;2.55;;;;;;;12.50;84.29;101608.63;6215594;23;20012;-62
2022/10/08 03:39:58;;;;;;;10.20;2.40;;;;;;;12.47;84.48;101618.28;6215768;23;20008;-63
2022/10/08 03:42:23;;;;;;;5.88;2.35;;;;;;;12.43;84.77;101622.66;6215817;23;20004;-63
2022/10/08 03:44:49;;;;;;;5.28;2.30;;;;;;;12.42;84.84;101620.88;6216087;23;20474;-62
2022/10/08 03:47:14;;;;;;;13.40;2.72;;;;;;;12.38;85.11;101624.34;6215653;23;20334;-63
2022/10/08 03:49:40;;;;;;;6.20;2.60;;;;;;;12.37;85.03;101629.59;6215771;23;20009;-63
2022/10/08 03:52:06;;;;;;;6.22;2.60;;;;;;;12.35;85.21;101634.88;6215669;23;20062;-63
2022/10/08 03:54:34;;;;;;;10.25;2.80;;;;;;;12.22;85.67;101625.84;6215752;23;20015;-62
2022/10/08 03:56:59;;;;;;;10.45;2.85;;;;;;;12.21;85.44;101628.47;6215728;23;20014;-63
2022/10/08 03:59:25;;;;;;;6.15;2.50;;;;;;;12.16;85.96;101625.75;6216047;23;20040;-62
2022/10/08 04:01:50;;;;;;;9.95;2.60;;;;;;;12.11;86.22;101638.00;6215961;23;20005;-62
2022/10/08 04:04:15;;;;;;;8.75;2.90;;;;;;;12.11;86.27;101627.41;6215742;23;20013;-62
2022/10/08 04:06:41;;;;;;;12.35;2.70;;;;;;;12.12;85.66;101630.94;6215280;23;20024;-63
2022/10/08 04:09:08;;;;;;;8.13;2.60;;;;;;;12.09;86.84;101631.81;6215955;23;20015;-63
2022/10/08 04:11:33;;;;;;;5.57;2.42;;;;;;;12.08;86.15;101640.63;6215573;23;20733;-62
2022/10/08 04:13:59;;;;;;;8.52;2.78;;;;;;;12.07;85.92;101645.88;6215617;23;20036;-63
2022/10/08 04:16:25;;;;;;;8.95;2.53;;;;;;;12.05;86.32;101643.22;6215531;23;20024;-63
2022/10/08 04:18:50;;;;;;;6.93;2.80;;;;;;;12.06;86.31;101638.81;6215355;23;20013;-63
2022/10/08 04:21:17;;;;;;;8.77;2.90;;;;;;;12.05;86.52;101644.97;6215558;23;20376;-64
2022/10/08 04:23:43;;;;;;;7.75;2.97;;;;;;;12.08;86.23;101650.34;6215772;23;20431;-63
2022/10/08 04:26:11;;;;;;;8.20;2.83;;;;;;;12.10;87.40;101644.19;6215440;23;20035;-62
2022/10/08 04:28:38;;;;;;;9.32;2.85;;;;;;;12.13;87.07;101646.88;6215544;23;20047;-63
2022/10/08 04:31:06;;;;;;;6.20;3.13;;;;;;;12.14;86.93;101638.06;6215569;23;20487;-63
2022/10/08 04:33:33;;;;;;;8.30;3.85;;;;;;;12.17;87.31;101654.03;6215470;23;20104;-63
2022/10/08 04:35:58;;;;;;;10.13;5.22;;;;;;;12.22;87.39;101649.69;6215471;23;20014;-63
2022/10/08 04:38:24;;;;;;;9.55;5.07;;;;;;;12.23;87.88;101648.81;6215520;23;20087;-62
2022/10/08 04:41:06;;;;;;;9.70;6.05;;;;;;;12.29;88.41;101658.66;6215513;23;20051;-63
2022/10/08 04:43:34;;;;;;;9.63;6.40;;;;;;;12.27;88.50;101658.59;6215505;23;20009;-63
2022/10/08 04:45:59;;;;;;;14.57;8.02;;;;;;;12.31;88.13;101654.25;6215388;23;20011;-63
2022/10/08 04:48:25;;;;;;;16.20;9.68;;;;;;;12.34;88.70;101662.25;6188958;23;20009;-63
2022/10/08 04:51:01;;;;;;;16.52;10.48;;;;;;;12.39;88.84;101668.53;6213882;23;20008;-63
2022/10/08 04:53:27;;;;;;;18.25;10.13;;;;;;;12.44;88.39;101682.75;6215347;23;20005;-63
2022/10/08 04:55:53;;;;;;;23.38;12.60;;;;;;;12.41;88.84;101679.13;6215399;23;20335;-63
2022/10/08 04:58:19;;;;;;;22.52;13.32;;;;;;;12.40;89.21;101680.00;6215377;23;20075;-62
2022/10/08 05:00:45;;;;;;;21.02;12.70;;;;;;;12.39;89.22;101692.38;6215443;23;20028;-63
2022/10/08 05:03:10;;;;;;;22.90;13.40;;;;;;;12.45;89.37;101694.22;6215677;23;20043;-63
2022/10/08 05:05:43;;;;;;;23.67;14.80;;;;;;;12.46;89.50;101690.69;6216746;23;20435;-63
2022/10/08 05:08:09;;;;;;;22.65;14.27;;;;;;;12.44;89.23;101697.75;6217531;23;20008;-63
2022/10/08 05:10:35;;;;;;;27.63;15.98;;;;;;;12.45;89.77;101702.19;6217510;23;20308;-63
2022/10/08 05:13:01;;;;;;;30.25;17.75;;;;;;;12.42;90.73;101697.75;6217128;23;20009;-63
2022/10/08 05:15:27;;;;;;;31.48;18.00;;;;;;;12.42;89.94;101692.44;6217408;23;20004;-63
2022/10/08 05:17:52;;;;;;;29.98;17.67;;;;;;;12.45;89.99;101692.47;6216639;23;20347;-63
2022/10/08 05:20:18;;;;;;;29.95;19.55;;;;;;;12.46;90.09;101696.94;6217142;23;20055;-63
2022/10/08 05:22:43;;;;;;;31.45;20.58;;;;;;;12.46;90.38;101701.31;6217105;23;20009;-63
2022/10/08 05:25:08;;;;;;;33.47;21.52;;;;;;;12.43;90.46;101698.63;6216891;23;20084;-62
2022/10/08 05:27:34;;;;;;;36.20;20.73;;;;;;;12.45;89.80;101707.47;6217277;23;20445;-63
2022/10/08 05:30:01;;;;;;;37.17;21.05;;;;;;;12.46;89.88;101712.84;6217367;23;20379;-63
2022/10/08 05:32:26;;;;;;;38.33;22.08;;;;;;;12.43;90.43;101709.22;6216976;23;20016;-63
2022/10/08 05:34:52;;;;;;;38.00;22.50;;;;;;;12.39;90.30;101708.28;6216912;23;20044;-63
2022/10/08 05:37:17;;;;;;;37.00;21.15;;;;;;;12.41;90.12;101716.25;6216676;23;20008;-62
2022/10/08 05:39:42;;;;;;;35.65;21.10;;;;;;;12.42;90.25;101715.38;6217045;23;20017;-62
2022/10/08 05:42:08;;;;;;;38.45;22.38;;;;;;;12.41;90.60;101713.59;6216811;23;20036;-62
2022/10/08 05:44:33;;;;;;;39.30;24.15;;;;;;;12.42;90.71;101721.59;6216799;23;20070;-63
2022/10/08 05:46:58;;;;;;;42.22;24.50;;;;;;;12.39;91.07;101724.19;6190045;23;20013;-62
2022/10/08 05:49:24;;;;;;;39.42;23.88;;;;;;;12.38;90.60;101726.81;6216671;23;20015;-62
2022/10/08 05:51:49;;;;;;;47.40;23.98;;;;;;;12.35;90.99;101730.28;6216793;23;20387;-64
2022/10/08 05:54:16;;;;;;;39.70;24.60;;;;;;;12.35;91.10;101740.00;6216854;23;20030;-63
2022/10/08 05:56:44;;;;;;;43.13;24.30;;;;;;;12.31;91.06;101739.06;6217017;23;20012;-63
2022/10/08 05:59:19;;;;;;;40.88;23.90;;;;;;;12.33;91.42;101749.66;6217016;23;20000;-64
2022/10/08 06:01:45;;;;;;;43.22;24.70;;;;;;;12.32;91.50;101742.59;6216862;23;20008;-63
2022/10/08 06:04:11;;;;;;;40.97;23.42;;;;;;;12.36;91.26;101752.38;6216912;23;20009;-63
2022/10/08 06:06:37;;;;;;;43.30;23.52;;;;;;;12.36;90.90;101760.34;6216504;23;20008;-63
2022/10/08 06:09:04;;;;;;;43.65;24.38;;;;;;;12.36;91.15;101763.00;6216483;23;20009;-63
2022/10/08 06:11:32;;;;;;;39.05;23.10;;;;;;;12.36;90.94;101761.22;6216567;23;20008;-63
2022/10/08 06:13:59;;;;;;;43.88;23.17;;;;;;;12.36;90.99;101761.22;6216492;23;20009;-63
2022/10/08 06:16:25;;;;;;;40.97;22.50;;;;;;;12.36;90.75;101770.94;6215916;23;20020;-63
2022/10/08 06:18:50;;;;;;;37.35;23.25;;;;;;;12.35;90.96;101769.16;6216187;23;20016;-63
2022/10/08 06:21:18;;;;;;;37.15;22.60;;;;;;;12.33;90.84;101774.41;6216712;23;20019;-63
2022/10/08 06:24:05;;;;;;;39.67;22.63;;;;;;;12.28;90.92;101771.69;6216405;23;20080;-63
2022/10/08 06:26:34;;;;;;;39.13;22.17;;;;;;;12.31;90.69;101784.09;6216390;23;20012;-63
2022/10/08 06:28:59;;;;;;;38.53;22.25;;;;;;;12.34;91.02;101778.00;6216468;23;20004;-63
2022/10/08 06:31:25;;;;;;;42.03;22.35;;;;;;;12.44;90.51;101790.53;6216434;23;20366;-62
2022/10/08 06:33:55;;;;;;;40.22;21.50;;;;;;;12.47;90.85;101798.56;6216354;23;20000;-62
2022/10/08 06:36:24;;;;;;;39.13;21.92;;;;;;;12.44;90.68;101796.72;6216315;23;20000;-63
2022/10/08 06:39:04;;;;;;;43.50;22.52;;;;;;;12.44;90.17;101803.78;6216325;23;20121;-63
2022/10/08 06:41:32;;;;;;;41.97;22.80;;;;;;;12.39;90.27;101805.47;6216333;23;20009;-62
2022/10/08 06:43:57;;;;;;;37.95;21.63;;;;;;;12.44;90.60;101809.09;6216229;23;20015;-62
2022/10/08 06:46:22;;;;;;;38.63;22.83;;;;;;;12.45;90.58;101825.00;6216399;23;20088;-63
2022/10/08 06:48:48;;;;;;;40.10;20.77;;;;;;;12.50;90.48;101820.72;6216543;23;20004;-62
2022/10/08 06:51:15;;;;;;;40.50;22.35;;;;;;;12.51;90.37;101822.50;6216098;23;20486;-62
2022/10/08 06:53:42;;;;;;;39.75;22.52;;;;;;;12.53;90.33;101827.81;6216166;23;20011;-62
2022/10/08 06:56:11;;;;;;;38.45;22.38;;;;;;;12.59;90.37;101837.63;6216123;23;20031;-62
2022/10/08 06:58:37;;;;;;;39.83;22.38;;;;;;;12.69;89.92;101836.94;6216071;23;20079;-64
2022/10/08 07:01:05;;;;;;;44.15;23.35;;;;;;;12.72;90.07;101850.28;6216122;23;20120;-62
2022/10/08 07:03:30;;;;;;;40.20;22.70;;;;;;;12.81;90.23;101857.50;6216357;23;20374;-62
2022/10/08 07:05:59;;;;;;;35.58;22.13;;;;;;;12.90;89.95;101855.00;6215595;23;20427;-63
2022/10/08 07:08:24;;;;;;;37.03;20.52;;;;;;;13.03;89.45;101862.31;6215915;23;20000;-62
2022/10/08 07:10:50;;;;;;;36.33;22.33;;;;;;;13.13;88.67;101869.53;6216124;23;20016;-62
2022/10/08 07:13:15;;;;;;;35.40;20.75;;;;;;;13.28;88.56;101877.78;6215846;23;20015;-63
2022/10/08 07:15:41;;;;;;;35.78;19.75;;;;;;;13.43;87.67;101878.91;6215892;23;20051;-62
2022/10/08 07:18:10;;;;;;;33.72;19.80;;;;;;;13.58;86.86;101883.56;6215734;23;20435;-62
2022/10/08 07:20:36;;;;;;;34.20;19.33;;;;;;;13.68;86.46;101883.72;6215881;23;20144;-64
2022/10/08 07:23:01;;;;;;;32.42;18.30;;;;;;;13.81;85.70;101883.88;6216223;23;20005;-63
2022/10/08 07:25:26;;;;;;;32.92;18.02;;;;;;;13.85;84.96;101886.59;6215779;23;20043;-65
2022/10/08 07:27:52;;;;;;;28.80;16.15;;;;;;;14.05;84.09;101884.22;6215777;23;20012;-63
2022/10/08 07:30:17;;;;;;;27.02;14.90;;;;;;;14.16;82.88;101898.53;6216156;23;20009;-63
2022/10/08 07:32:42;;;;;;;24.38;14.40;;;;;;;14.24;82.54;101898.63;6215786;23;20013;-64
2022/10/08 07:35:08;;;;;;;24.48;13.30;;;;;;;14.29;81.44;101895.16;6214220;23;20074;-63
2022/10/08 07:37:34;;;;;;;25.45;12.27;;;;;;;14.54;81.11;101906.13;6215557;23;20015;-65
2022/10/08 07:39:59;;;;;;;20.77;11.70;;;;;;;14.74;79.62;101909.03;6215817;23;20005;-63
2022/10/08 07:42:25;;;;;;;22.67;11.82;;;;;;;14.94;79.40;101907.44;6216035;23;20435;-64
2022/10/08 07:44:50;;;;;;;18.73;11.27;;;;;;;15.16;78.79;101904.97;6215822;23;20059;-63
2022/10/08 07:47:15;;;;;;;21.02;10.35;;;;;;;15.34;76.92;101917.56;6215910;23;20096;-63
2022/10/08 07:49:41;;;;;;;20.67;11.13;;;;;;;15.48;76.32;101915.91;6215648;23;20083;-63
2022/10/08 07:52:06;;;;;;;17.20;10.13;;;;;;;15.63;75.88;101921.34;6215635;23;20005;-63
2022/10/08 07:54:32;;;;;;;17.63;8.77;;;;;;;15.79;75.19;101914.38;6215654;23;20008;-63
2022/10/08 07:57:00;;;;;;;19.70;9.07;;;;;;;15.88;73.71;101916.19;6214104;23;20074;-64
2022/10/08 07:59:26;;;;;;;15.55;8.63;;;;;;;16.02;73.56;101920.75;6215665;23;20013;-64
2022/10/08 08:01:52;;;;;;;19.67;7.32;;;;;;;16.13;71.76;101922.56;6215660;23;20009;-63
2022/10/08 08:04:17;;;;;;;15.60;7.20;;;;;;;16.23;71.41;101924.38;6215864;23;20411;-63
2022/10/08 08:06:47;;;;;;;11.23;6.28;;;;;;;16.45;70.49;101931.59;6215257;23;20055;-63
2022/10/08 08:09:13;;;;;;;13.60;5.35;;;;;;;16.43;68.50;101933.38;6215528;23;20001;-62
2022/10/08 08:11:39;;;;;;;15.60;5.90;;;;;;;16.56;69.21;101933.41;6215475;23;20319;-62
2022/10/08 08:14:05;;;;;;;16.73;5.28;;;;;;;16.74;67.57;101942.44;6215544;23;20007;-64
2022/10/08 08:16:30;;;;;;;13.00;5.13;;;;;;;17.00;67.35;101946.91;6215604;23;20013;-63
2022/10/08 08:18:58;;;;;;;10.10;4.78;;;;;;;17.21;66.11;101946.03;6215408;23;20103;-64
2022/10/08 08:21:35;;;;;;;14.77;4.75;;;;;;;17.41;64.89;101952.31;6215952;23;20004;-63
2022/10/08 08:24:07;;;;;;;11.52;3.85;;;;;;;17.65;63.85;101954.09;6215839;23;20371;-64
2022/10/08 08:26:34;;;;;;;14.60;4.83;;;;;;;17.70;63.25;101957.66;6213889;23;20047;-63
2022/10/08 08:29:06;;;;;;;14.52;4.47;;;;;;;17.86;63.03;101955.88;6215748;23;20005;-63
2022/10/08 08:31:37;;;;;;;10.48;4.20;;;;;;;18.18;62.17;101960.25;6215558;23;20050;-63
2022/10/08 08:34:06;;;;;;;10.77;3.58;;;;;;;18.31;60.50;101963.78;6215507;23;20110;-64
2022/10/08 08:36:40;;;;;;;14.68;3.67;;;;;;;18.60;61.30;101969.03;6215096;23;20427;-64
2022/10/08 08:39:07;;;;;;;9.05;3.28;;;;;;;18.79;59.53;101975.22;6216151;23;20338;-62
2022/10/08 08:41:36;;;;;;;11.23;3.50;;;;;;;19.10;58.15;101979.50;6217723;23;20009;-63
2022/10/08 08:44:11;;;;;;;10.10;3.40;;;;;;;19.27;57.69;101976.69;6217388;23;20456;-64
2022/10/08 08:46:42;;;;;;;12.10;3.35;;;;;;;19.64;56.18;101989.84;6217654;23;20075;-63
2022/10/08 08:49:39;;;;;;;7.97;2.75;;;;;;;19.68;58.28;101988.94;6217428;23;20012;-63
2022/10/08 08:52:05;;;;;;;10.32;2.80;;;;;;;19.66;54.95;101991.63;6175512;23;20015;-63
2022/10/08 08:54:31;;;;;;;10.27;2.90;;;;;;;19.58;53.76;102003.28;6217289;23;20001;-64
2022/10/08 08:57:26;;;;;;;11.73;2.67;;;;;;;19.66;54.10;101993.44;6217360;23;20024;-64
2022/10/08 08:59:54;;;;;;;10.90;2.65;;;;;;;19.88;54.11;101991.44;6216416;23;20420;-63
2022/10/08 09:02:28;;;;;;;9.98;2.42;;;;;;;20.01;52.74;102001.16;6217226;23;20004;-63
2022/10/08 09:05:01;;;;;;;9.20;2.30;;;;;;;20.06;51.73;102003.78;6217472;23;20008;-63
2022/10/08 09:07:32;;;;;;;9.65;2.35;;;;;;;20.24;51.91;102007.16;6217174;23;20009;-63
2022/10/08 09:09:58;;;;;;;7.10;2.33;;;;;;;20.02;50.56;102002.91;6217345;23;20059;-63
2022/10/08 09:12:42;;;;;;;10.57;2.42;;;;;;;19.97;52.72;102005.66;6190596;23;20004;-63
2022/10/08 09:15:20;;;;;;;9.80;2.20;;;;;;;19.82;52.12;102008.47;6217063;23;20378;-63
2022/10/08 09:17:50;;;;;;;8.70;2.40;;;;;;;20.02;51.64;102008.28;6216943;23;20020;-63
2022/10/08 09:20:18;;;;;;;5.97;2.00;;;;;;;19.97;50.91;102012.81;6217396;23;20139;-62
2022/10/08 09:22:44;;;;;;;10.48;2.35;;;;;;;20.26;49.61;102010.72;6216947;23;20067;-63
2022/10/08 09:25:19;;;;;;;7.68;2.20;;;;;;;20.30;50.74;102024.09;6217047;23;20430;-62
2022/10/08 09:27:52;;;;;;;7.10;2.08;;;;;;;20.60;50.10;102029.19;6217319;23;20004;-63
2022/10/08 09:30:23;;;;;;;7.90;2.20;;;;;;;20.44;47.67;102031.09;6217222;23;20004;-62
2022/10/08 09:33:02;;;;;;;7.22;2.22;;;;;;;20.15;48.51;102027.84;6216975;23;20004;-63
2022/10/08 09:35:30;;;;;;;10.30;2.28;;;;;;;20.11;47.43;102034.13;6190394;23;20422;-63
2022/10/08 09:37:55;;;;;;;11.45;2.17;;;;;;;20.84;48.85;102029.75;6216718;23;20068;-62
2022/10/08 09:40:26;;;;;;;9.48;2.20;;;;;;;21.04;46.95;102035.78;6216784;23;20090;-63
2022/10/08 09:43:15;;;;;;;9.63;2.20;;;;;;;21.03;48.33;102044.75;6217041;23;20135;-63
2022/10/08 09:45:48;;;;;;;6.45;2.10;;;;;;;20.78;47.42;102048.66;6216681;23;20032;-63
2022/10/08 09:48:18;;;;;;;8.18;2.40;;;;;;;20.25;47.23;102049.19;6216771;23;20013;-62
2022/10/08 09:50:54;;;;;;;7.65;1.83;;;;;;;20.17;48.47;102059.13;6216662;23;20082;-63
2022/10/08 09:53:22;;;;;;;5.88;1.98;;;;;;;19.95;48.42;102058.41;6217099;23;20024;-63
2022/10/08 09:55:53;;;;;;;7.32;2.38;;;;;;;19.81;48.25;102063.00;6216598;23;20505;-63
2022/10/08 09:58:18;;;;;;;6.68;2.10;;;;;;;20.13;48.38;102057.38;6216716;23;20374;-63
2022/10/08 10:00:53;;;;;;;8.57;2.00;;;;;;;20.49;48.67;102068.69;6216732;23;20004;-63
2022/10/08 10:03:19;;;;;;;7.47;2.20;;;;;;;20.28;47.65;102059.00;6216731;23;20013;-63
2022/10/08 10:05:50;;;;;;;7.32;2.20;;;;;;;20.12;47.92;102073.47;6216290;23;20331;-63
2022/10/08 10:08:47;;;;;;;8.13;2.00;;;;;;;20.36;48.82;102072.38;6216539;23;20311;-62
2022/10/08 10:11:21;;;;;;;7.22;2.10;;;;;;;20.27;47.45;102076.03;6216860;23;20004;-62
2022/10/08 10:13:48;;;;;;;5.78;2.03;;;;;;;19.85;47.12;102085.34;6216540;23;20101;-62
2022/10/08 10:16:22;;;;;;;10.13;2.10;;;;;;;20.14;47.08;102075.25;6216837;23;20012;-62
2022/10/08 10:19:03;;;;;;;9.93;2.40;;;;;;;20.43;46.76;102080.34;6216235;23;20019;-63
2022/10/08 10:21:39;;;;;;;7.87;1.93;;;;;;;20.82;47.14;102082.63;6190304;23;20497;-62
2022/10/08 10:24:11;;;;;;;7.55;1.98;;;;;;;21.27;44.26;102079.34;6216845;23;20032;-63
2022/10/08 10:26:39;;;;;;;;;;;;;;;21.26;46.87;102080.25;6217278;23;20008;-63
2022/10/08 10:29:11;;;;;;;8.45;2.00;;;;;;;21.02;43.71;102091.31;6216676;23;19907;-62
2022/10/08 10:31:42;;;;;;;9.23;1.85;;;;;;;21.19;43.15;102088.41;6216399;23;20009;-62
2022/10/08 10:34:16;;;;;;;8.38;2.20;;;;;;;21.46;42.39;102090.78;6216514;23;20011;-63
2022/10/08 10:37:13;;;;;;;4.78;1.80;;;;;;;21.95;42.28;102089.09;6216356;23;20008;-63
2022/10/08 10:39:44;;;;;;;7.80;2.10;;;;;;;21.97;41.28;102096.25;6216390;23;20015;-63
2022/10/08 10:42:28;;;;;;;6.13;2.03;;;;;;;22.00;40.83;102098.88;6216249;23;20055;-63
2022/10/08 10:44:56;;;;;;;5.82;1.83;;;;;;;22.05;40.56;102096.09;6216624;23;20008;-62
2022/10/08 10:47:29;;;;;;;5.13;1.90;;;;;;;21.60;40.82;102098.63;6216152;23;20039;-62
2022/10/08 10:49:56;;;;;;;5.00;1.98;;;;;;;21.50;41.07;102099.69;6216486;23;20001;-62
2022/10/08 10:52:49;;;;;;;8.63;2.10;;;;;;;21.62;42.44;102099.47;6216150;23;20024;-62
2022/10/08 10:55:24;;;;;;;7.50;1.90;;;;;;;21.81;42.46;102100.09;6215618;23;20000;-62
2022/10/08 10:58:07;;;;;;;8.70;2.20;;;;;;;22.21;40.33;102094.97;6216088;23;20054;-62
2022/10/08 11:00:57;;;;;;;7.07;2.00;;;;;;;22.26;39.50;102094.88;6216240;23;20000;-62
2022/10/08 11:03:40;;;;;;;4.72;2.05;;;;;;;22.08;38.20;102105.94;6215903;23;20414;-62
2022/10/08 11:06:39;;;;;;;6.47;1.90;;;;;;;21.86;39.00;102108.97;6215819;23;20009;-62
2022/10/08 11:09:19;;;;;;;4.95;1.70;;;;;;;21.79;38.88;102098.34;6216256;23;20005;-62
2022/10/08 11:11:51;;;;;;;9.70;2.03;;;;;;;22.07;38.14;102107.75;6216188;23;20377;-62
2022/10/08 11:14:43;;;;;;;7.95;1.80;;;;;;;22.40;39.37;102102.72;6216360;23;20075;-62
2022/10/08 11:17:24;;;;;;;;;;;;;;;22.55;40.26;102112.31;6216647;23;20008;-62
2022/10/08 11:20:36;;;;;;;5.10;1.80;;;;;;;22.60;37.87;102103.22;6216015;23;19912;-63
2022/10/08 11:23:13;;;;;;;7.93;2.10;;;;;;;22.96;34.86;102098.06;6172814;23;20382;-62
2022/10/08 11:25:56;;;;;;;6.13;2.08;;;;;;;22.97;34.23;102099.84;6216139;23;20004;-63
2022/10/08 11:28:26;;;;;;;5.47;2.30;;;;;;;23.06;36.24;102094.25;6215949;23;20004;-63
2022/10/08 11:31:01;;;;;;;5.72;1.95;;;;;;;23.23;35.94;102102.84;6216215;23;20417;-63
2022/10/08 11:33:27;;;;;;;13.23;2.38;;;;;;;23.23;35.40;102107.38;6215920;23;20090;-62
2022/10/08 11:36:06;;;;;;;6.20;1.90;;;;;;;23.39;35.24;102108.81;6188931;23;20435;-62